Time;durP1;ratioP1;P1;durP2;ratioP2;P2;SDS_P1;SDS_P2;PMS_P1;PMS_P2;Temp;Humidity;BMP_temperature;BMP_pressure;BME280_temperature;BME280_humidity;BME280_pressure;Samples;Min_cycle;Max_cycle;Signal;HPM_P1;HPM_P2
2021/12/06 10:12:06;;;;;;;41.53;24.10;;;;;;;2.37;71.85;99893.88;5077629;23;97050;-78
2021/12/06 10:14:32;;;;;;;41.37;25.03;;;;;;;2.36;71.90;99892.16;4897604;28;99124;-78
2021/12/06 10:16:58;;;;;;;44.40;25.10;;;;;;;2.41;71.58;99895.56;4851417;28;97136;-78
2021/12/06 10:19:26;;;;;;;40.90;25.53;;;;;;;2.45;71.22;99892.09;4872142;28;96655;-78
2021/12/06 10:21:53;;;;;;;41.13;25.37;;;;;;;2.42;71.70;99892.97;4832611;28;101414;-78
2021/12/06 10:28:43;;;;;;;45.23;26.20;;;;;;;2.35;71.46;99899.06;4881653;28;96575;-78
2021/12/06 10:31:11;;;;;;;45.90;24.93;;;;;;;2.35;71.28;99903.38;4876650;28;96822;-78
2021/12/06 10:33:49;;;;;;;45.33;27.23;;;;;;;2.43;71.43;99893.81;4868367;28;96769;-77
2021/12/06 10:36:17;;;;;;;39.07;24.93;;;;;;;2.43;70.75;99889.50;4872573;28;101345;-87
2021/12/06 11:13:51;;;;;;;46.83;26.17;;;;;;;2.56;70.84;99900.66;5804192;23;98436;-79
2021/12/06 11:16:20;;;;;;;45.93;27.20;;;;;;;2.55;70.71;99893.72;4869051;28;101281;-80
2021/12/06 11:18:56;;;;;;;46.37;26.27;;;;;;;2.53;70.71;99897.19;4868562;28;101433;-80
2021/12/06 11:21:47;;;;;;;43.97;26.30;;;;;;;2.47;70.70;99893.81;4880376;28;96660;-79
2021/12/06 11:24:18;;;;;;;40.17;25.73;;;;;;;2.44;70.80;99896.41;4877780;28;96831;-79
2021/12/06 11:26:58;;;;;;;44.00;26.93;;;;;;;2.48;71.10;99897.25;4905374;28;98065;-80
2021/12/06 11:36:47;;;;;;;45.50;27.10;;;;;;;2.49;70.70;99893.78;4892683;28;96704;-80
2021/12/06 11:39:17;;;;;;;46.80;27.83;;;;;;;2.63;70.19;99897.13;4895533;28;97429;-81
2021/12/06 11:41:48;;;;;;;44.17;27.90;;;;;;;2.64;70.44;99910.94;4866333;28;98073;-81
2021/12/06 11:44:21;;;;;;;46.50;27.92;;;;;;;2.61;69.74;99900.59;4838102;28;96873;-80
2021/12/06 11:46:54;;;;;;;49.03;27.57;;;;;;;2.65;70.20;99903.16;4888909;28;96773;-80
2021/12/06 13:23:39;;;;;;;38.35;21.98;;;;;;;2.61;69.22;99918.72;6219627;22;1484800;-81
2021/12/06 13:29:08;;;;;;;35.47;20.70;;;;;;;2.55;69.76;99921.38;6178786;22;98993;-82
2021/12/06 13:40:24;;;;;;;35.53;21.70;;;;;;;2.47;69.85;99921.41;6186217;22;100047;31
2021/12/06 13:42:50;;;;;;;38.00;22.07;;;;;;;2.57;69.73;99935.19;6117403;22;99127;-79
2021/12/06 13:45:17;;;;;;;38.17;21.60;;;;;;;2.62;69.46;99931.69;6156949;22;96576;-80
2021/12/06 13:47:48;;;;;;;37.67;21.80;;;;;;;2.54;70.17;99930.03;6185266;22;96719;-79
2021/12/06 13:50:16;;;;;;;40.03;23.53;;;;;;;2.41;70.82;99934.41;6210994;22;99364;-79
2021/12/06 13:52:43;;;;;;;37.97;23.87;;;;;;;2.43;70.57;99943.91;6180498;22;99502;-80
2021/12/06 14:03:27;;;;;;;37.58;22.88;;;;;;;2.36;71.15;99949.16;6235091;22;99434;-78
2021/12/06 14:05:55;;;;;;;37.53;22.27;;;;;;;2.45;70.44;99957.72;6220971;22;97142;-78
2021/12/06 14:08:24;;;;;;;42.27;22.67;;;;;;;2.41;70.07;99957.75;6248371;22;96594;-78
2021/12/06 14:10:52;;;;;;;35.03;22.53;;;;;;;2.41;70.51;99961.19;6221528;22;99590;-80
2021/12/06 14:13:23;;;;;;;32.77;21.97;;;;;;;2.38;70.06;99960.34;6215089;22;99567;-79
2021/12/06 14:15:53;;;;;;;37.80;22.90;;;;;;;2.38;69.68;99966.38;6241093;22;97204;-79
2021/12/06 14:20:55;;;;;;;40.00;22.90;;;;;;;2.33;70.74;99960.41;6173719;22;98178;-80
2021/12/06 14:23:24;;;;;;;38.53;23.57;;;;;;;2.33;70.25;99964.69;6180613;22;99614;-80
2021/12/06 14:25:52;;;;;;;39.93;23.20;;;;;;;2.37;70.18;99976.78;6210875;22;96347;-81
2021/12/06 14:31:02;;;;;;;43.23;23.13;;;;;;;2.24;71.11;99973.38;6249968;22;99687;-80
2021/12/06 14:33:30;;;;;;;40.97;24.37;;;;;;;2.31;70.49;99988.03;6187047;22;98982;-79
2021/12/06 14:35:56;;;;;;;46.67;27.67;;;;;;;2.30;70.75;99983.72;6199820;22;97060;-81
2021/12/06 14:38:27;;;;;;;40.13;23.93;;;;;;;2.38;70.15;99987.09;6195197;22;96921;-81
2021/12/06 14:40:57;;;;;;;40.43;23.30;;;;;;;2.37;70.78;99989.72;6171181;22;99893;-81
2021/12/06 14:43:23;;;;;;;42.83;23.93;;;;;;;2.29;70.98;99987.16;6194586;22;99876;-81
2021/12/06 14:45:49;;;;;;;41.80;25.57;;;;;;;2.31;70.79;99995.78;6223125;22;97033;-80
2021/12/06 14:48:20;;;;;;;40.57;25.57;;;;;;;2.26;70.98;99992.38;6203986;22;96581;-81
2021/12/06 14:51:11;;;;;;;42.03;25.47;;;;;;;2.26;71.09;99997.53;6203266;22;98357;-81
2021/12/06 14:58:40;;;;;;;41.17;24.30;;;;;;;2.23;70.30;100001.00;6198491;22;96944;-80
2021/12/06 15:01:23;;;;;;;40.03;23.20;;;;;;;2.20;70.55;100003.63;6220674;22;98576;-81
2021/12/06 15:03:57;;;;;;;41.40;23.03;;;;;;;2.18;70.66;100007.06;6172407;22;100566;-80
2021/12/06 15:06:23;;;;;;;40.20;23.53;;;;;;;2.11;71.04;100013.16;6172677;22;96654;-80
2021/12/06 15:08:54;;;;;;;38.47;23.33;;;;;;;2.18;71.02;100007.06;6224062;22;96673;-81
2021/12/06 15:11:25;;;;;;;39.47;23.40;;;;;;;2.19;70.43;100012.25;6198145;22;97104;-79
2021/12/06 15:13:54;;;;;;;44.37;24.60;;;;;;;2.24;70.32;100014.81;6173266;22;100676;-79
2021/12/06 15:16:21;;;;;;;45.03;24.83;;;;;;;2.21;70.42;100014.84;6200374;22;97018;-80
2021/12/06 15:18:48;;;;;;;46.97;26.37;;;;;;;2.29;70.21;100022.56;6201896;22;96883;-81
2021/12/06 15:21:15;;;;;;;44.07;24.40;;;;;;;2.26;70.20;100013.09;6198813;22;100112;-80
2021/12/06 15:23:50;;;;;;;47.27;25.27;;;;;;;2.22;70.09;100024.34;6173047;22;100487;-81
2021/12/06 15:26:22;;;;;;;44.43;24.37;;;;;;;2.20;70.31;100028.66;6224032;22;97188;-81
2021/12/06 15:28:49;;;;;;;40.53;23.52;;;;;;;2.20;70.67;100032.09;6200784;22;96838;-80
2021/12/06 15:31:15;;;;;;;41.60;24.53;;;;;;;2.09;70.85;100033.88;6224495;22;97961;-80
2021/12/06 15:33:45;;;;;;;41.17;23.07;;;;;;;2.09;70.85;100035.59;6199194;22;98187;-81
2021/12/06 15:36:14;;;;;;;46.90;26.20;;;;;;;1.99;70.57;100027.03;6196613;22;97191;-79
2021/12/06 15:38:49;;;;;;;44.57;24.10;;;;;;;2.09;70.30;100033.88;6198789;22;97175;-80
2021/12/06 15:41:26;;;;;;;37.33;23.23;;;;;;;2.15;69.92;100039.06;6199477;22;98237;-81
2021/12/06 15:44:04;;;;;;;34.13;22.30;;;;;;;2.12;70.87;100039.03;6197163;22;100054;-80
2021/12/06 15:46:33;;;;;;;37.07;21.30;;;;;;;2.11;71.00;100039.06;6219303;22;97204;-80
2021/12/06 15:49:01;;;;;;;35.23;22.57;;;;;;;2.17;70.65;100026.09;6196850;22;96702;-79
2021/12/06 15:51:36;;;;;;;32.90;21.33;;;;;;;2.19;70.56;100035.56;6195740;22;97023;-80
2021/12/06 15:54:07;;;;;;;31.07;20.57;;;;;;;2.18;70.23;100044.22;6202878;22;101300;-79
2021/12/06 15:56:35;;;;;;;33.00;21.17;;;;;;;2.14;69.86;100039.91;6200394;22;96993;-81
2021/12/06 15:59:07;;;;;;;39.03;21.80;;;;;;;2.15;69.98;100044.25;6207122;22;97118;-80
2021/12/06 16:01:42;;;;;;;39.63;22.97;;;;;;;2.12;69.86;100036.44;6179360;22;100606;-80
2021/12/06 16:04:10;;;;;;;38.77;22.30;;;;;;;2.10;70.46;100045.13;6181666;22;100387;-80
2021/12/06 16:06:37;;;;;;;39.13;23.43;;;;;;;2.11;70.41;100044.25;6175730;22;97008;-80
2021/12/06 16:09:14;;;;;;;40.50;24.60;;;;;;;2.13;70.32;100047.69;6177885;22;96790;-79
2021/12/06 16:11:54;;;;;;;43.77;26.40;;;;;;;2.11;70.50;100047.69;6201526;22;100301;-81
2021/12/06 16:14:25;;;;;;;46.60;26.17;;;;;;;2.07;70.34;100052.91;6225873;22;99995;-80
2021/12/06 16:16:52;;;;;;;38.08;23.52;;;;;;;2.11;70.32;100052.88;6198168;22;96970;-80
2021/12/06 16:19:20;;;;;;;38.37;24.13;;;;;;;2.04;70.31;100052.03;6223440;22;96761;-80
2021/12/06 16:21:49;;;;;;;41.33;24.30;;;;;;;2.02;70.42;100050.31;6170004;22;100998;-79
2021/12/06 16:24:16;;;;;;;37.57;23.30;;;;;;;2.06;70.04;100053.75;6192886;22;100655;-80
2021/12/06 16:26:44;;;;;;;37.57;23.20;;;;;;;2.01;70.17;100048.59;6221132;22;97225;-80
2021/12/06 16:29:22;;;;;;;45.23;25.70;;;;;;;1.96;69.67;100051.19;6174394;22;97328;-79
2021/12/06 16:31:52;;;;;;;46.93;25.50;;;;;;;1.97;70.47;100052.91;6173114;22;100507;-79
2021/12/06 16:34:24;;;;;;;42.03;25.53;;;;;;;1.97;70.54;100058.09;6227501;22;97368;-80
2021/12/06 16:36:58;;;;;;;39.93;25.00;;;;;;;1.98;70.38;100051.22;6206241;22;96625;-79
2021/12/06 16:39:44;;;;;;;42.50;25.90;;;;;;;1.93;70.42;100051.22;6234723;22;96695;-79
2021/12/06 16:42:35;;;;;;;42.97;24.60;;;;;;;1.99;70.83;100058.94;6232377;22;100062;-80
2021/12/06 16:45:12;;;;;;;43.33;26.70;;;;;;;1.99;70.41;100051.19;6177723;22;101131;-80
2021/12/06 16:47:43;;;;;;;42.43;27.53;;;;;;;1.96;70.88;100053.78;6208049;22;96936;-80
2021/12/06 16:50:14;;;;;;;48.15;26.80;;;;;;;1.97;70.46;100057.22;6187674;22;96480;-82
2021/12/06 16:52:48;;;;;;;46.93;27.50;;;;;;;1.99;69.86;100050.34;6211933;22;98197;-80
2021/12/06 16:55:26;;;;;;;41.77;25.47;;;;;;;1.91;69.99;100058.09;6234674;22;97330;-80
2021/12/06 16:58:17;;;;;;;38.93;25.17;;;;;;;1.91;70.51;100052.06;6172785;22;96720;-80
2021/12/06 17:00:51;;;;;;;36.90;23.43;;;;;;;1.96;70.34;100047.75;6172644;22;97109;-81
2021/12/06 17:03:24;;;;;;;39.53;24.67;;;;;;;1.95;69.97;100054.66;6176365;22;99345;-81
2021/12/06 17:06:17;;;;;;;40.67;24.47;;;;;;;1.87;70.17;100052.97;6195962;22;96652;-80
2021/12/06 17:08:46;;;;;;;41.93;25.17;;;;;;;1.98;70.34;100059.84;6221773;22;97007;-80
2021/12/06 17:11:18;;;;;;;45.13;26.37;;;;;;;1.91;70.59;100050.34;6221901;22;96744;-80
2021/12/06 17:13:45;;;;;;;45.60;27.35;;;;;;;1.90;70.69;100056.41;6197064;22;100770;-80
2021/12/06 17:16:31;;;;;;;44.17;27.03;;;;;;;1.88;70.41;100055.53;6224780;22;99783;-80
2021/12/06 17:19:19;;;;;;;46.03;27.80;;;;;;;1.89;71.24;100059.88;6203013;22;97309;-79
2021/12/06 17:21:49;;;;;;;48.53;29.13;;;;;;;1.85;70.99;100049.50;6228006;22;97075;-80
2021/12/06 17:24:29;;;;;;;45.80;28.43;;;;;;;1.90;70.96;100059.00;6228793;22;96675;-80
2021/12/06 17:26:54;;;;;;;47.07;29.00;;;;;;;2.00;70.30;100058.06;6202715;22;96977;-80
2021/12/06 17:29:21;;;;;;;51.90;29.17;;;;;;;1.96;69.80;100052.94;6178982;22;97096;-79
2021/12/06 17:31:50;;;;;;;47.10;29.90;;;;;;;1.98;69.71;100058.97;6202783;22;97074;-80
2021/12/06 17:34:26;;;;;;;51.80;31.53;;;;;;;1.96;69.77;100056.38;6232527;22;101202;-79
2021/12/06 17:36:59;;;;;;;49.00;29.00;;;;;;;1.91;69.94;100049.50;6213463;22;96553;-79
2021/12/06 17:39:27;;;;;;;48.90;28.53;;;;;;;1.97;69.72;100049.47;6208996;22;96592;-79
2021/12/06 17:41:53;;;;;;;50.93;29.40;;;;;;;1.90;70.20;100043.47;6204764;22;96830;-80
2021/12/06 17:44:21;;;;;;;45.43;27.80;;;;;;;1.94;69.72;100045.16;6205085;22;98022;-80
2021/12/06 17:46:47;;;;;;;55.30;31.37;;;;;;;1.83;69.53;100046.06;6182462;22;99683;-81
2021/12/06 17:49:14;;;;;;;62.13;32.67;;;;;;;1.80;69.88;100047.81;6232902;22;96611;-80
2021/12/06 17:51:41;;;;;;;50.40;31.40;;;;;;;1.66;70.21;100046.97;6181870;22;96706;-80
2021/12/06 17:54:09;;;;;;;48.87;28.57;;;;;;;1.77;70.32;100047.78;6184871;22;99899;-79
2021/12/06 17:56:38;;;;;;;43.07;25.60;;;;;;;1.74;70.54;100044.34;6213289;22;100450;-79
2021/12/06 17:59:05;;;;;;;41.03;26.23;;;;;;;1.85;70.38;100057.28;6189205;22;95819;-79
2021/12/06 18:01:33;;;;;;;42.17;25.80;;;;;;;1.89;69.80;100053.81;6189562;22;97046;-79
2021/12/06 18:04:00;;;;;;;45.07;25.83;;;;;;;1.92;69.91;100061.56;6206048;22;98864;-79
2021/12/06 18:06:26;;;;;;;50.27;28.80;;;;;;;1.91;69.69;100055.53;6208965;22;96710;-79
2021/12/06 18:08:52;;;;;;;43.37;27.27;;;;;;;1.87;70.37;100056.41;6179702;22;96616;-79
2021/12/06 18:11:18;;;;;;;45.90;27.33;;;;;;;1.87;70.19;100061.59;6226629;22;96754;-79
2021/12/06 18:13:49;;;;;;;47.43;27.00;;;;;;;1.75;70.78;100059.03;6178939;22;101368;-79
2021/12/06 18:16:17;;;;;;;49.93;28.73;;;;;;;1.83;70.47;100052.09;6212242;22;97307;-79
2021/12/06 18:18:44;;;;;;;49.37;27.43;;;;;;;1.88;69.94;100057.25;6209311;22;96855;-80
2021/12/06 18:21:12;;;;;;;44.13;25.23;;;;;;;1.92;70.05;100059.84;6227712;22;97221;-79
2021/12/06 18:23:39;;;;;;;42.00;25.20;;;;;;;1.86;70.20;100056.41;6219110;22;98019;-80
2021/12/06 18:26:05;;;;;;;49.87;27.13;;;;;;;1.86;70.24;100064.16;6219684;22;96908;-79
2021/12/06 18:28:34;;;;;;;44.73;26.47;;;;;;;1.83;70.34;100053.81;6166277;22;96738;-80
2021/12/06 18:31:00;;;;;;;44.27;25.67;;;;;;;1.78;70.41;100065.06;6193231;22;97060;-79
2021/12/06 18:33:27;;;;;;;47.77;27.67;;;;;;;1.69;70.94;100067.66;6166701;22;100503;-80
2021/12/06 18:35:55;;;;;;;41.70;26.20;;;;;;;1.70;71.00;100071.97;6167379;22;101937;-80
2021/12/06 18:38:25;;;;;;;44.77;26.30;;;;;;;1.80;71.11;100075.41;6192432;22;96582;-79
2021/12/06 18:40:55;;;;;;;42.40;26.17;;;;;;;1.85;70.65;100071.06;6197924;22;96628;-80
2021/12/06 18:46:22;;;;;;;45.40;25.70;;;;;;;1.76;71.00;100071.09;6149446;22;101032;-79
2021/12/06 18:48:50;;;;;;;45.20;26.53;;;;;;;1.81;70.65;100074.53;6219946;22;96669;-80
2021/12/06 18:51:17;;;;;;;49.20;28.30;;;;;;;1.87;70.33;100063.31;6169519;22;96997;-80
2021/12/06 18:53:47;;;;;;;60.73;29.30;;;;;;;1.84;70.38;100060.75;6192130;22;100369;-79
2021/12/06 18:56:13;;;;;;;52.17;28.33;;;;;;;1.90;70.30;100061.56;6191137;22;102043;-79
2021/12/06 18:58:39;;;;;;;50.67;27.77;;;;;;;1.91;70.07;100063.28;6164723;22;97076;-79
2021/12/06 19:01:08;;;;;;;57.20;31.17;;;;;;;1.89;69.94;100061.56;6167901;22;97450;-80
2021/12/06 19:03:34;;;;;;;51.63;27.57;;;;;;;1.81;70.48;100067.63;6169035;22;101541;-79
2021/12/06 19:06:00;;;;;;;55.17;29.20;;;;;;;1.72;70.67;100072.84;6218168;22;97329;-78
2021/12/06 19:08:26;;;;;;;54.73;29.23;;;;;;;1.67;70.73;100068.53;6191940;22;96736;-79
2021/12/06 19:10:52;;;;;;;50.87;28.60;;;;;;;1.75;70.70;100061.63;6190596;22;96900;-79
2021/12/06 19:13:17;;;;;;;55.70;29.87;;;;;;;1.71;70.77;100071.09;6214749;22;100603;-80
2021/12/06 19:15:43;;;;;;;53.30;29.63;;;;;;;1.61;70.76;100073.72;6215367;22;101220;-79
